Time;durP1;ratioP1;P1;durP2;ratioP2;P2;SDS_P1;SDS_P2;PMS_P1;PMS_P2;Temp;Humidity;BMP_temperature;BMP_pressure;BME280_temperature;BME280_humidity;BME280_pressure;Samples;Min_cycle;Max_cycle;Signal;HPM_P1;HPM_P2
2021/03/07 00:00:44;;;;;;;7.10;6.50;;;;;15.40;101705.00;;;;2085273;28;20308;-62
2021/03/07 00:01:44;;;;;;;7.63;7.03;;;;;15.40;101711.00;;;;2085376;28;20218;-62
2021/03/07 00:02:45;;;;;;;7.90;7.13;;;;;15.40;101705.00;;;;2085882;28;20214;-62
2021/03/07 00:03:45;;;;;;;7.53;6.93;;;;;15.40;101705.00;;;;2092063;28;20214;-63
2021/03/07 00:04:45;;;;;;;7.70;7.00;;;;;15.40;101702.00;;;;2089632;28;20668;-65
2021/03/07 00:05:46;;;;;;;7.70;7.10;;;;;15.40;101705.00;;;;2085578;28;20553;-65
2021/03/07 00:06:46;;;;;;;7.80;7.10;;;;;15.40;101706.00;;;;2087737;28;20205;-64
2021/03/07 00:07:47;;;;;;;7.37;6.77;;;;;15.40;101706.00;;;;2087970;28;20209;-63
2021/03/07 00:08:47;;;;;;;7.82;7.13;;;;;15.40;101706.00;;;;2076856;28;20219;-63
2021/03/07 00:09:48;;;;;;;7.70;6.90;;;;;15.40;101702.00;;;;2076816;28;20211;-63
2021/03/07 00:10:48;;;;;;;7.17;6.57;;;;;15.40;101698.00;;;;2085771;28;20708;-63
2021/03/07 00:11:48;;;;;;;7.63;6.93;;;;;15.40;101694.00;;;;2085601;28;20950;-63
2021/03/07 00:12:49;;;;;;;7.53;6.80;;;;;15.40;101709.00;;;;2085740;28;20747;-62
2021/03/07 00:13:50;;;;;;;8.37;7.57;;;;;15.40;101704.00;;;;2085627;28;20740;-63
2021/03/07 00:14:50;;;;;;;8.20;7.40;;;;;15.40;101706.00;;;;2083085;28;20465;-63
2021/03/07 00:15:50;;;;;;;7.63;6.93;;;;;15.40;101708.00;;;;2084464;28;20688;-63
2021/03/07 00:16:51;;;;;;;7.70;7.00;;;;;15.40;101699.00;;;;2084243;28;20674;-63
2021/03/07 00:17:51;;;;;;;7.50;6.80;;;;;15.40;101696.00;;;;2085454;28;20608;-63
2021/03/07 00:18:52;;;;;;;8.70;7.80;;;;;15.40;101702.00;;;;2090068;28;20213;-62
2021/03/07 00:19:52;;;;;;;8.37;7.57;;;;;15.40;101697.00;;;;2092069;28;20462;-64
2021/03/07 00:20:52;;;;;;;7.67;7.07;;;;;15.40;101699.00;;;;2085661;28;20560;-63
2021/03/07 00:21:53;;;;;;;7.70;7.00;;;;;15.40;101701.00;;;;2085383;28;20283;-63
2021/03/07 00:22:53;;;;;;;7.40;6.70;;;;;15.40;101701.00;;;;2085570;28;20216;-63
2021/03/07 00:23:53;;;;;;;7.30;6.60;;;;;15.40;101695.00;;;;2085655;28;20201;-62
2021/03/07 00:24:54;;;;;;;8.47;7.67;;;;;15.40;101692.00;;;;2085003;28;20214;-63
2021/03/07 00:25:54;;;;;;;8.30;7.50;;;;;15.40;101695.00;;;;2085449;28;20217;-63
2021/03/07 00:26:54;;;;;;;8.20;7.40;;;;;15.40;101693.00;;;;2085669;28;20225;-63
2021/03/07 00:27:55;;;;;;;7.93;7.23;;;;;15.40;101698.00;;;;2085475;28;20278;-63
2021/03/07 00:28:55;;;;;;;7.40;6.80;;;;;15.40;101691.00;;;;2085401;28;20263;-63
2021/03/07 00:29:56;;;;;;;7.13;6.43;;;;;15.40;101691.00;;;;2085489;28;20247;-63
2021/03/07 00:30:56;;;;;;;7.97;7.27;;;;;15.40;101696.00;;;;2085669;28;20201;-63
2021/03/07 00:31:56;;;;;;;7.63;6.93;;;;;15.40;101695.00;;;;2085193;28;20209;-63
2021/03/07 00:32:57;;;;;;;7.97;7.17;;;;;15.40;101694.00;;;;2085391;28;20205;-63
2021/03/07 00:33:57;;;;;;;7.87;7.17;;;;;15.40;101681.00;;;;2085571;28;20247;-63
2021/03/07 00:34:57;;;;;;;7.63;6.93;;;;;15.40;101693.00;;;;2084077;28;20271;-62
2021/03/07 00:35:58;;;;;;;7.30;6.70;;;;;15.40;101684.00;;;;2084348;28;20206;-62
2021/03/07 00:36:59;;;;;;;7.70;7.00;;;;;15.40;101682.00;;;;2085395;28;20205;-63
2021/03/07 00:37:59;;;;;;;8.33;7.63;;;;;15.40;101693.00;;;;2085604;28;20687;-63
2021/03/07 00:38:59;;;;;;;7.70;7.00;;;;;15.40;101689.00;;;;2085455;28;20448;-62
2021/03/07 00:40:00;;;;;;;7.60;7.00;;;;;15.40;101688.00;;;;2085345;28;20202;-62
2021/03/07 00:41:00;;;;;;;7.77;7.07;;;;;15.40;101682.00;;;;2085462;28;20780;-63
2021/03/07 00:42:01;;;;;;;8.43;7.63;;;;;15.40;101685.00;;;;2085375;28;20271;-63
2021/03/07 00:43:01;;;;;;;7.57;6.87;;;;;15.40;101682.00;;;;2090514;28;20218;-63
2021/03/07 00:44:04;;;;;;;8.00;7.30;;;;;15.40;101683.00;;;;2091655;28;20280;-63
2021/03/07 00:45:06;;;;;;;7.90;7.20;;;;;15.40;101685.00;;;;2084671;28;20205;-62
2021/03/07 00:46:07;;;;;;;8.18;7.47;;;;;15.40;101688.00;;;;2085389;28;20684;-62
2021/03/07 00:47:07;;;;;;;8.50;7.70;;;;;15.40;101686.00;;;;2084178;28;20202;-62
2021/03/07 00:48:08;;;;;;;8.03;7.33;;;;;15.40;101682.00;;;;2090240;28;20980;-63
2021/03/07 00:49:08;;;;;;;8.23;7.53;;;;;15.40;101688.00;;;;2090159;28;20202;-63
2021/03/07 00:50:16;;;;;;;7.60;7.00;;;;;15.40;101682.00;;;;2085291;28;20209;-63
2021/03/07 00:51:16;;;;;;;7.30;6.60;;;;;15.40;101690.00;;;;2090243;28;20211;-62
2021/03/07 00:52:17;;;;;;;7.80;7.10;;;;;15.40;101691.00;;;;2092172;28;20215;-63
2021/03/07 00:53:17;;;;;;;8.07;7.37;;;;;15.40;101685.00;;;;2085338;28;20239;-63
2021/03/07 00:54:17;;;;;;;8.80;8.00;;;;;15.40;101686.00;;;;2085366;28;20201;-63
2021/03/07 00:55:18;;;;;;;8.53;7.73;;;;;15.40;101693.00;;;;2075965;28;20209;-63
2021/03/07 00:56:18;;;;;;;7.87;7.17;;;;;15.40;101690.00;;;;2076511;28;20293;-63
2021/03/07 00:57:18;;;;;;;8.00;7.30;;;;;15.40;101685.00;;;;2085351;28;20212;-63
2021/03/07 00:58:19;;;;;;;7.93;7.13;;;;;15.40;101688.00;;;;2085420;28;20977;-63
2021/03/07 00:59:20;;;;;;;7.23;6.63;;;;;15.40;101683.00;;;;2084850;28;20205;-62
2021/03/07 01:00:22;;;;;;;7.10;6.50;;;;;15.40;101692.00;;;;2085040;28;20236;-63
2021/03/07 01:01:23;;;;;;;7.95;7.25;;;;;15.40;101688.00;;;;2085114;28;20229;-63
2021/03/07 01:02:25;;;;;;;8.47;7.70;;;;;15.40;101693.00;;;;2084944;28;20571;-63
2021/03/07 01:03:25;;;;;;;8.63;7.43;;;;;15.40;101687.00;;;;2085321;28;20721;-63
2021/03/07 01:04:26;;;;;;;8.30;7.63;;;;;15.40;101689.00;;;;2085114;28;20230;-63
2021/03/07 01:05:27;;;;;;;8.47;7.67;;;;;15.40;101691.00;;;;2075956;28;20218;-63
2021/03/07 01:06:28;;;;;;;8.10;7.40;;;;;15.40;101695.00;;;;2076310;28;20343;-62
2021/03/07 01:07:28;;;;;;;7.87;7.17;;;;;15.40;101692.00;;;;2085216;28;20213;-63
2021/03/07 01:08:29;;;;;;;8.13;7.43;;;;;15.40;101685.00;;;;2085163;28;20209;-63
2021/03/07 01:09:30;;;;;;;7.80;7.13;;;;;15.40;101687.00;;;;2085141;28;20216;-63
2021/03/07 01:10:40;;;;;;;8.00;7.20;;;;;15.40;101685.00;;;;2083257;28;20209;-63
2021/03/07 01:11:40;;;;;;;8.18;7.45;;;;;15.40;101690.00;;;;2085338;28;20206;-63
2021/03/07 01:12:41;;;;;;;7.93;7.20;;;;;15.40;101694.00;;;;2085044;28;20678;-63
2021/03/07 01:13:41;;;;;;;8.33;7.40;;;;;15.40;101683.00;;;;2085164;28;20203;-63
2021/03/07 01:14:42;;;;;;;7.73;7.10;;;;;15.40;101680.00;;;;2092010;28;24779;-63
2021/03/07 01:15:42;;;;;;;7.97;7.17;;;;;15.40;101681.00;;;;2091551;28;20624;-63
2021/03/07 01:16:44;;;;;;;8.63;7.83;;;;;15.40;101684.00;;;;2084400;28;20280;-62
2021/03/07 01:17:45;;;;;;;8.38;7.57;;;;;15.40;101684.00;;;;2084107;28;20209;-63
2021/03/07 01:18:45;;;;;;;7.80;7.10;;;;;15.40;101688.00;;;;2084051;28;20229;-63
2021/03/07 01:19:45;;;;;;;8.67;7.77;;;;;15.30;101682.00;;;;2084227;28;20688;-62
2021/03/07 01:20:46;;;;;;;7.97;7.27;;;;;15.30;101683.00;;;;2083243;28;20589;-61
2021/03/07 01:21:46;;;;;;;8.30;7.50;;;;;15.30;101681.00;;;;2085194;28;20565;-62
2021/03/07 01:22:47;;;;;;;8.10;7.23;;;;;15.40;101692.00;;;;2078877;28;20218;-63
2021/03/07 01:23:47;;;;;;;8.20;7.40;;;;;15.40;101674.00;;;;2078859;28;20332;-62
2021/03/07 01:24:48;;;;;;;8.80;8.00;;;;;15.40;101688.00;;;;2084615;28;20221;-63
2021/03/07 01:25:48;;;;;;;8.17;7.37;;;;;15.40;101682.00;;;;2078533;28;20620;-63
2021/03/07 01:26:48;;;;;;;7.50;6.90;;;;;15.40;101671.00;;;;2084372;28;20577;-62
2021/03/07 01:27:49;;;;;;;7.87;7.17;;;;;15.40;101674.00;;;;2085051;28;20230;-63
2021/03/07 01:28:49;;;;;;;8.00;7.30;;;;;15.40;101670.00;;;;2075943;28;20269;-63
2021/03/07 01:29:49;;;;;;;8.50;7.70;;;;;15.40;101668.00;;;;2076441;28;20721;-62
2021/03/07 01:30:50;;;;;;;8.00;7.23;;;;;15.40;101674.00;;;;2084184;28;20727;-63
2021/03/07 01:31:51;;;;;;;8.23;7.50;;;;;15.40;101674.00;;;;2084890;28;20750;-62
2021/03/07 01:32:51;;;;;;;7.87;7.17;;;;;15.30;101671.00;;;;2084745;28;20645;-63
2021/03/07 01:33:51;;;;;;;7.50;6.80;;;;;15.40;101673.00;;;;2086169;28;20466;-63
2021/03/07 01:34:52;;;;;;;7.93;7.23;;;;;15.30;101672.00;;;;2086605;28;20221;-63
2021/03/07 01:35:52;;;;;;;7.70;7.10;;;;;15.30;101665.00;;;;2083349;28;20221;-62
2021/03/07 01:36:53;;;;;;;7.90;7.20;;;;;15.30;101660.00;;;;2084933;28;20229;-63
2021/03/07 01:37:53;;;;;;;7.80;7.10;;;;;15.30;101658.00;;;;2084089;28;20206;-63
2021/03/07 01:38:53;;;;;;;7.90;7.20;;;;;15.30;101652.00;;;;2084831;28;20687;-62
2021/03/07 01:39:54;;;;;;;7.93;7.20;;;;;15.30;101666.00;;;;2084886;28;20695;-63
2021/03/07 01:40:54;;;;;;;8.10;7.30;;;;;15.40;101655.00;;;;2084833;28;20232;-63
2021/03/07 01:41:54;;;;;;;8.43;7.63;;;;;15.30;101656.00;;;;2085163;28;20208;-62
2021/03/07 01:42:56;;;;;;;7.30;6.70;;;;;15.30;101660.00;;;;2084805;28;20244;-62
2021/03/07 01:43:56;;;;;;;7.70;6.95;;;;;15.30;101648.00;;;;2084953;28;20217;-63
2021/03/07 01:44:57;;;;;;;7.40;6.80;;;;;15.30;101653.00;;;;2084436;28;20694;-64
2021/03/07 01:45:57;;;;;;;8.00;7.30;;;;;15.30;101651.00;;;;2085115;28;20205;-63
2021/03/07 01:46:57;;;;;;;8.43;7.73;;;;;15.30;101647.00;;;;2074304;28;20207;-63
2021/03/07 01:48:02;;;;;;;7.40;6.80;;;;;15.30;101648.00;;;;2074647;28;20254;-64
2021/03/07 01:49:03;;;;;;;9.50;8.60;;;;;15.30;101645.00;;;;2077537;28;20218;-61
2021/03/07 01:50:04;;;;;;;7.87;7.17;;;;;15.30;101653.00;;;;2076650;28;20316;-63
2021/03/07 01:51:04;;;;;;;7.80;7.10;;;;;15.30;101643.00;;;;2085022;28;20201;-62
2021/03/07 01:52:04;;;;;;;7.80;7.10;;;;;15.30;101640.00;;;;2084904;28;20217;-62
2021/03/07 01:53:05;;;;;;;8.27;7.47;;;;;15.30;101640.00;;;;2084707;28;20248;-62
2021/03/07 01:54:05;;;;;;;7.67;6.97;;;;;15.30;101637.00;;;;2085040;28;20215;-62
2021/03/07 01:55:06;;;;;;;7.07;6.47;;;;;15.30;101646.00;;;;2084144;28;20205;-63
2021/03/07 01:56:07;;;;;;;7.83;7.13;;;;;15.30;101642.00;;;;2085057;28;20714;-62
2021/03/07 01:57:07;;;;;;;8.50;7.70;;;;;15.30;101632.00;;;;2084817;28;20259;-63
2021/03/07 01:58:19;;;;;;;7.17;6.47;;;;;15.30;101634.00;;;;2084865;28;20440;-63
2021/03/07 01:59:19;;;;;;;7.90;7.20;;;;;15.30;101626.00;;;;2083120;28;20353;-63
2021/03/07 02:00:20;;;;;;;8.47;7.67;;;;;15.30;101630.00;;;;2084737;28;20275;-63
2021/03/07 02:01:21;;;;;;;7.90;7.20;;;;;15.30;101633.00;;;;2076202;28;20683;-62
2021/03/07 02:02:21;;;;;;;7.70;7.00;;;;;15.30;101628.00;;;;2075219;28;20453;-62
2021/03/07 02:03:22;;;;;;;8.07;7.37;;;;;15.30;101627.00;;;;2075954;28;20241;-62
2021/03/07 02:04:22;;;;;;;8.50;7.67;;;;;15.30;101624.00;;;;2068013;28;20590;-62
2021/03/07 02:05:22;;;;;;;8.20;7.50;;;;;15.30;101628.00;;;;2076865;28;20328;-63
2021/03/07 02:06:23;;;;;;;7.70;7.00;;;;;15.30;101625.00;;;;2086904;28;20630;-62
2021/03/07 02:07:23;;;;;;;7.60;6.90;;;;;15.30;101624.00;;;;2084069;28;20263;-62
2021/03/07 02:08:23;;;;;;;7.17;6.57;;;;;15.30;101630.00;;;;2084751;28;20213;-62
2021/03/07 02:09:24;;;;;;;8.10;7.37;;;;;15.30;101627.00;;;;2084921;28;20213;-62
2021/03/07 02:10:28;;;;;;;7.87;7.17;;;;;15.30;101626.00;;;;2067881;28;20211;-63
2021/03/07 02:11:28;;;;;;;8.18;7.47;;;;;15.30;101628.00;;;;2068833;28;20225;-63
2021/03/07 02:12:28;;;;;;;7.80;7.07;;;;;15.30;101621.00;;;;2076128;28;20700;-63
2021/03/07 02:13:32;;;;;;;7.83;7.17;;;;;15.30;101617.00;;;;2067625;28;20756;-65
2021/03/07 02:14:32;;;;;;;7.93;7.22;;;;;15.30;101619.00;;;;2075822;28;20217;-63
2021/03/07 02:15:33;;;;;;;7.77;7.07;;;;;15.30;101622.00;;;;2074996;28;20234;-62
2021/03/07 02:16:33;;;;;;;7.87;7.07;;;;;15.30;101621.00;;;;2074199;28;20222;-63
2021/03/07 02:17:34;;;;;;;7.83;7.13;;;;;15.30;101620.00;;;;2074976;28;20254;-62
2021/03/07 02:18:36;;;;;;;7.80;7.10;;;;;15.30;101622.00;;;;2075516;28;20198;-63
2021/03/07 02:19:38;;;;;;;7.40;6.70;;;;;15.30;101617.00;;;;2066705;28;20204;-63
2021/03/07 02:20:43;;;;;;;7.20;6.57;;;;;15.30;101621.00;;;;2067721;28;20223;-62
2021/03/07 02:21:47;;;;;;;7.30;6.70;;;;;15.30;101617.00;;;;2075706;28;20701;-63
2021/03/07 02:22:52;;;;;;;7.05;6.45;;;;;15.30;101617.00;;;;2066906;28;20216;-62
2021/03/07 02:23:56;;;;;;;7.55;6.95;;;;;15.30;101612.00;;;;2058529;28;20219;-62
2021/03/07 02:24:56;;;;;;;6.90;6.30;;;;;15.30;101606.00;;;;2074891;28;20219;-63
2021/03/07 02:25:56;;;;;;;7.93;7.23;;;;;15.30;101609.00;;;;2080698;28;20209;-62
2021/03/07 02:26:57;;;;;;;7.60;6.90;;;;;15.30;101608.00;;;;2082186;28;20213;-62
2021/03/07 02:27:59;;;;;;;7.97;7.27;;;;;15.30;101616.00;;;;2067909;28;20199;-62
2021/03/07 02:29:00;;;;;;;7.90;7.20;;;;;15.30;101607.00;;;;2067997;28;20333;-62
2021/03/07 02:30:05;;;;;;;7.85;7.15;;;;;15.30;101601.00;;;;2084899;28;20702;-63
2021/03/07 02:31:05;;;;;;;8.52;7.68;;;;;15.30;101602.00;;;;2085516;28;20206;-63
2021/03/07 02:32:08;;;;;;;7.77;7.07;;;;;15.30;101604.00;;;;2091082;28;20213;-63
2021/03/07 02:33:30;;;;;;;7.80;7.10;;;;;15.30;101604.00;;;;2082384;28;20206;-62
2021/03/07 02:34:31;;;;;;;7.22;6.63;;;;;15.30;101598.00;;;;2067751;28;20285;-63
2021/03/07 02:35:32;;;;;;;7.68;6.97;;;;;15.30;101594.00;;;;2066914;28;20305;-63
2021/03/07 02:36:44;;;;;;;7.70;6.90;;;;;15.30;101602.00;;;;2070314;28;20264;-63
2021/03/07 02:37:46;;;;;;;7.93;7.22;;;;;15.20;101590.00;;;;2069196;28;20211;-62
2021/03/07 02:38:47;;;;;;;7.78;7.15;;;;;15.30;101599.00;;;;2068178;28;20217;-62
2021/03/07 02:39:47;;;;;;;7.70;7.10;;;;;15.30;101593.00;;;;2067720;28;20213;-62
2021/03/07 02:40:49;;;;;;;7.40;6.70;;;;;15.30;101589.00;;;;2059633;28;20215;-63
2021/03/07 02:41:49;;;;;;;8.07;7.35;;;;;15.30;101587.00;;;;2075173;28;20210;-63
2021/03/07 02:42:50;;;;;;;8.17;7.47;;;;;15.30;101588.00;;;;2072630;28;20195;-63
2021/03/07 02:43:52;;;;;;;7.77;7.07;;;;;15.30;101587.00;;;;2073260;28;20202;-63
2021/03/07 02:44:57;;;;;;;7.45;6.82;;;;;15.30;101590.00;;;;2061809;28;20907;-63
2021/03/07 02:45:58;;;;;;;8.07;7.32;;;;;15.30;101591.00;;;;2069958;28;20210;-63
2021/03/07 02:46:58;;;;;;;8.40;7.60;;;;;15.30;101597.00;;;;2092080;28;20205;-62
2021/03/07 02:47:59;;;;;;;7.90;7.20;;;;;15.20;101581.00;;;;2077555;28;20205;-63
2021/03/07 02:49:01;;;;;;;8.20;7.50;;;;;15.20;101586.00;;;;2071449;28;20452;-62
2021/03/07 02:50:05;;;;;;;7.43;6.72;;;;;15.20;101589.00;;;;2071877;28;20230;-62
2021/03/07 02:51:05;;;;;;;8.13;7.40;;;;;15.20;101586.00;;;;2070359;28;20213;-63
2021/03/07 02:52:06;;;;;;;7.57;6.83;;;;;15.20;101583.00;;;;2083976;28;20213;-62
2021/03/07 02:53:08;;;;;;;7.43;6.73;;;;;15.20;101586.00;;;;2085615;28;20213;-63
2021/03/07 02:54:09;;;;;;;8.00;7.30;;;;;15.20;101587.00;;;;2070557;28;20285;-63
2021/03/07 02:55:09;;;;;;;8.00;7.30;;;;;15.20;101584.00;;;;2078092;28;20240;-63
2021/03/07 02:56:14;;;;;;;7.80;7.00;;;;;15.30;101584.00;;;;2078543;28;20461;-63
2021/03/07 02:57:14;;;;;;;7.80;7.10;;;;;15.30;101579.00;;;;2070723;28;20978;-62
2021/03/07 02:58:15;;;;;;;8.07;7.37;;;;;15.30;101577.00;;;;2078774;28;20216;-62
2021/03/07 02:59:15;;;;;;;7.20;6.60;;;;;15.30;101572.00;;;;2081292;28;20205;-63
2021/03/07 03:00:16;;;;;;;7.47;6.87;;;;;15.30;101576.00;;;;2077886;28;20202;-63
2021/03/07 03:01:17;;;;;;;7.57;6.88;;;;;15.20;101576.00;;;;2077410;28;20388;-63
2021/03/07 03:02:17;;;;;;;8.03;7.33;;;;;15.20;101582.00;;;;2076480;28;20221;-63
2021/03/07 03:03:19;;;;;;;7.87;7.17;;;;;15.20;101577.00;;;;2070167;28;20641;-62
2021/03/07 03:04:19;;;;;;;7.50;6.90;;;;;15.20;101578.00;;;;2070517;28;20210;-62
2021/03/07 03:05:20;;;;;;;7.97;7.27;;;;;15.20;101574.00;;;;2069138;28;20290;-63
2021/03/07 03:06:20;;;;;;;7.97;7.17;;;;;15.20;101575.00;;;;2085988;28;20202;-63
2021/03/07 03:07:20;;;;;;;7.50;6.90;;;;;15.20;101571.00;;;;2085496;28;20600;-63
2021/03/07 03:08:21;;;;;;;7.20;6.60;;;;;15.20;101575.00;;;;2078941;28;20285;-63
2021/03/07 03:09:21;;;;;;;7.10;6.50;;;;;15.20;101579.00;;;;2087124;28;20805;-63
2021/03/07 03:10:21;;;;;;;7.57;6.97;;;;;15.20;101577.00;;;;2078368;28;20642;-63
2021/03/07 03:11:26;;;;;;;7.20;6.50;;;;;15.30;101575.00;;;;2070400;28;20206;-63
2021/03/07 03:12:30;;;;;;;7.10;6.40;;;;;15.30;101577.00;;;;2078962;28;20708;-62
2021/03/07 03:13:32;;;;;;;7.53;6.82;;;;;15.20;101570.00;;;;2087304;28;20287;-63
2021/03/07 03:14:33;;;;;;;7.35;6.75;;;;;15.20;101578.00;;;;2070277;28;20218;-63
2021/03/07 03:15:33;;;;;;;7.47;6.87;;;;;15.20;101572.00;;;;2072284;28;20677;-63
2021/03/07 03:16:33;;;;;;;7.40;6.70;;;;;15.20;101575.00;;;;2071831;28;20636;-63
2021/03/07 03:17:34;;;;;;;7.80;7.20;;;;;15.20;101575.00;;;;2079425;28;20256;-62
2021/03/07 03:18:34;;;;;;;7.30;6.70;;;;;15.20;101567.00;;;;2086728;28;20237;-62
2021/03/07 03:19:35;;;;;;;7.73;7.03;;;;;15.20;101568.00;;;;2076573;28;20221;-63
2021/03/07 03:20:35;;;;;;;7.77;7.17;;;;;15.20;101567.00;;;;2076381;28;20218;-62
2021/03/07 03:21:35;;;;;;;7.33;6.67;;;;;15.20;101573.00;;;;2076687;28;20206;-62
2021/03/07 03:22:36;;;;;;;8.03;7.23;;;;;15.20;101571.00;;;;2061645;28;20204;-63
2021/03/07 03:23:36;;;;;;;7.23;6.53;;;;;15.20;101565.00;;;;2070138;28;20215;-63
2021/03/07 03:24:37;;;;;;;7.17;6.57;;;;;15.20;101561.00;;;;2087404;28;20241;-62
2021/03/07 03:25:37;;;;;;;7.70;7.00;;;;;15.20;101519.00;;;;2071997;28;20291;-63
2021/03/07 03:26:38;;;;;;;7.03;6.43;;;;;15.20;101563.00;;;;2061269;28;20645;-63
2021/03/07 03:27:38;;;;;;;7.00;6.50;;;;;15.20;101574.00;;;;2078108;28;20728;-64
2021/03/07 03:28:38;;;;;;;7.30;6.60;;;;;15.20;101562.00;;;;2075757;28;20217;-62
2021/03/07 03:29:39;;;;;;;8.10;7.30;;;;;15.20;101560.00;;;;2077662;28;20221;-63
2021/03/07 03:30:39;;;;;;;8.10;7.40;;;;;15.20;101563.00;;;;2086820;28;20213;-63
2021/03/07 03:31:39;;;;;;;7.60;6.90;;;;;15.20;101562.00;;;;2087132;28;20202;-63
2021/03/07 03:32:40;;;;;;;7.70;7.00;;;;;15.20;101553.00;;;;2087001;28;20245;-63
2021/03/07 03:33:40;;;;;;;7.33;6.70;;;;;15.20;101562.00;;;;2081734;28;20498;-63
2021/03/07 03:34:41;;;;;;;7.93;7.33;;;;;15.20;101561.00;;;;2086554;28;20206;-63
2021/03/07 03:35:41;;;;;;;7.40;6.80;;;;;15.20;101561.00;;;;2085911;28;20222;-63
2021/03/07 03:36:42;;;;;;;7.40;6.80;;;;;15.20;101559.00;;;;2086707;28;20233;-63
2021/03/07 03:37:43;;;;;;;7.75;7.05;;;;;15.20;101557.00;;;;2086557;28;20224;-63
2021/03/07 03:38:49;;;;;;;7.10;6.50;;;;;15.20;101554.00;;;;2084188;28;20217;-63
2021/03/07 03:39:50;;;;;;;7.35;6.65;;;;;15.20;101555.00;;;;2077668;28;20199;-63
2021/03/07 03:40:53;;;;;;;7.53;6.83;;;;;15.20;101554.00;;;;2070002;28;20741;-63
2021/03/07 03:41:56;;;;;;;6.90;6.25;;;;;15.20;101555.00;;;;2067625;28;20207;-63
2021/03/07 03:43:01;;;;;;;7.65;7.05;;;;;15.20;101559.00;;;;2069528;28;20277;-63
2021/03/07 03:44:04;;;;;;;7.70;7.00;;;;;15.20;101552.00;;;;2078955;28;20549;-63
2021/03/07 03:45:06;;;;;;;7.43;6.75;;;;;15.20;101551.00;;;;2084430;28;20217;-62
2021/03/07 03:46:08;;;;;;;7.20;6.60;;;;;15.20;101552.00;;;;2085064;28;20218;-63
2021/03/07 03:47:09;;;;;;;7.90;7.20;;;;;15.20;101546.00;;;;2087153;28;20224;-63
2021/03/07 03:48:16;;;;;;;7.07;6.47;;;;;15.20;101549.00;;;;2089980;28;20213;-62
2021/03/07 03:49:31;;;;;;;7.18;6.57;;;;;15.20;101548.00;;;;2085007;28;20702;-63
2021/03/07 03:50:31;;;;;;;7.47;6.78;;;;;15.20;101546.00;;;;2074751;28;20221;-63
2021/03/07 03:51:34;;;;;;;7.30;6.70;;;;;15.20;101543.00;;;;2064642;28;20942;-63
2021/03/07 03:52:37;;;;;;;7.55;6.95;;;;;15.20;101547.00;;;;2056949;28;20215;-62
2021/03/07 03:53:38;;;;;;;7.68;7.03;;;;;15.20;101552.00;;;;2069643;28;20230;-63
2021/03/07 03:54:58;;;;;;;6.93;6.33;;;;;15.20;101553.00;;;;2075090;28;20346;-63
2021/03/07 03:55:59;;;;;;;7.57;6.97;;;;;15.20;101555.00;;;;2085014;28;20234;-62
2021/03/07 03:56:59;;;;;;;7.20;6.60;;;;;15.20;101547.00;;;;2079610;28;20307;-63
2021/03/07 03:58:04;;;;;;;7.13;6.53;;;;;15.20;101547.00;;;;2066673;28;20736;-62
2021/03/07 03:59:04;;;;;;;7.43;6.72;;;;;15.20;101554.00;;;;2069112;28;20207;-63
2021/03/07 04:00:07;;;;;;;7.13;6.53;;;;;15.20;101557.00;;;;2076961;28;20626;-62
2021/03/07 04:01:07;;;;;;;7.85;7.15;;;;;15.20;101551.00;;;;2092068;28;20217;-63
2021/03/07 04:02:08;;;;;;;6.77;6.17;;;;;15.20;101553.00;;;;2091914;28;20755;-62
2021/03/07 04:03:12;;;;;;;7.60;6.90;;;;;15.20;101541.00;;;;2083553;28;20250;-63
2021/03/07 04:04:13;;;;;;;7.47;6.82;;;;;15.20;101548.00;;;;2075199;28;20221;-63
2021/03/07 04:05:16;;;;;;;7.60;7.00;;;;;15.20;101553.00;;;;2067886;28;20611;-63
2021/03/07 04:06:22;;;;;;;7.28;6.60;;;;;15.20;101544.00;;;;2076028;28;20203;-63
2021/03/07 04:07:24;;;;;;;6.80;6.30;;;;;15.20;101549.00;;;;2084395;28;20220;-63
2021/03/07 04:08:24;;;;;;;7.20;6.60;;;;;15.20;101548.00;;;;2070922;28;20669;-62
2021/03/07 04:09:24;;;;;;;7.33;6.73;;;;;15.20;101539.00;;;;2067326;28;20286;-62
2021/03/07 04:10:25;;;;;;;7.60;6.90;;;;;15.10;101544.00;;;;2074502;28;20205;-62
2021/03/07 04:11:25;;;;;;;7.83;7.17;;;;;15.20;101538.00;;;;2067898;28;20218;-62
2021/03/07 04:12:25;;;;;;;7.60;6.90;;;;;15.20;101544.00;;;;2068050;28;20594;-63
2021/03/07 04:13:27;;;;;;;7.80;7.10;;;;;15.20;101544.00;;;;2068234;28;20262;-63
2021/03/07 04:14:27;;;;;;;7.78;7.10;;;;;15.20;101538.00;;;;2076451;28;20242;-63
2021/03/07 04:15:28;;;;;;;7.00;6.40;;;;;15.20;101541.00;;;;2068304;28;20215;-63
2021/03/07 04:16:28;;;;;;;7.17;6.47;;;;;15.20;101540.00;;;;2069863;28;20249;-63
2021/03/07 04:17:28;;;;;;;7.10;6.50;;;;;15.20;101544.00;;;;2075858;28;20274;-62
2021/03/07 04:18:29;;;;;;;7.60;7.00;;;;;15.20;101544.00;;;;2071263;28;20226;-62
2021/03/07 04:19:30;;;;;;;6.80;6.20;;;;;15.20;101545.00;;;;2069605;28;20215;-62
2021/03/07 04:20:31;;;;;;;6.60;6.10;;;;;15.10;101546.00;;;;2076854;28;20618;-63
2021/03/07 04:21:31;;;;;;;7.03;6.43;;;;;15.20;101542.00;;;;2068626;28;20219;-63
2021/03/07 04:22:31;;;;;;;8.00;7.30;;;;;15.20;101541.00;;;;2068657;28;20302;-62
2021/03/07 04:23:32;;;;;;;6.77;6.17;;;;;15.20;101545.00;;;;2076432;28;20237;-62
2021/03/07 04:24:32;;;;;;;7.53;6.73;;;;;15.20;101539.00;;;;2070889;28;20223;-61
2021/03/07 04:25:33;;;;;;;7.20;6.50;;;;;15.20;101545.00;;;;2081999;28;20751;-62
2021/03/07 04:26:33;;;;;;;7.70;7.00;;;;;15.20;101533.00;;;;2083605;28;20622;-62
2021/03/07 04:27:34;;;;;;;7.23;6.63;;;;;15.20;101532.00;;;;2059789;28;20230;-62
2021/03/07 04:28:34;;;;;;;6.90;6.30;;;;;15.20;101544.00;;;;2068494;28;20265;-63
2021/03/07 04:29:36;;;;;;;6.80;6.10;;;;;15.20;101536.00;;;;2076725;28;20222;-62
2021/03/07 04:30:37;;;;;;;6.70;6.20;;;;;15.20;101533.00;;;;2085474;28;20222;-62
2021/03/07 04:31:37;;;;;;;6.63;6.03;;;;;15.20;101543.00;;;;2084482;28;20220;-62
2021/03/07 04:32:38;;;;;;;7.00;6.40;;;;;15.20;101544.00;;;;2083375;28;20210;-63
2021/03/07 04:33:38;;;;;;;7.43;6.80;;;;;15.20;101530.00;;;;2075146;28;20251;-63
2021/03/07 04:34:38;;;;;;;6.77;6.17;;;;;15.20;101540.00;;;;2060427;28;20215;-62
2021/03/07 04:35:40;;;;;;;6.70;6.10;;;;;15.20;101542.00;;;;2059804;28;20555;-63
2021/03/07 04:36:40;;;;;;;6.70;6.20;;;;;15.10;101527.00;;;;2076109;28;20237;-62
2021/03/07 04:37:41;;;;;;;7.50;6.90;;;;;15.20;101542.00;;;;2091672;28;20212;-63
2021/03/07 04:38:41;;;;;;;7.23;6.63;;;;;15.20;101542.00;;;;2083398;28;20730;-62
2021/03/07 04:39:41;;;;;;;7.40;6.70;;;;;15.10;101538.00;;;;2068590;28;20254;-62
2021/03/07 04:40:42;;;;;;;7.17;6.57;;;;;15.20;101542.00;;;;2076727;28;20964;-63
2021/03/07 04:41:43;;;;;;;7.57;6.93;;;;;15.20;101533.00;;;;2075693;28;20214;-61
2021/03/07 04:42:43;;;;;;;7.00;6.40;;;;;15.10;101534.00;;;;2085089;28;20931;-63
2021/03/07 04:43:53;;;;;;;6.77;6.27;;;;;15.10;101533.00;;;;2083285;28;20245;-63
2021/03/07 04:44:54;;;;;;;6.85;6.25;;;;;15.10;101524.00;;;;2075135;28;20218;-63
2021/03/07 04:45:54;;;;;;;7.50;6.80;;;;;15.20;101525.00;;;;2077290;28;20210;-62
2021/03/07 04:46:54;;;;;;;7.00;6.40;;;;;15.20;101532.00;;;;2085855;28;20201;-63
2021/03/07 04:47:55;;;;;;;6.73;6.17;;;;;15.20;101529.00;;;;2085628;28;20304;-63
2021/03/07 04:48:55;;;;;;;7.33;6.67;;;;;15.20;101523.00;;;;2084467;28;20593;-63
2021/03/07 04:49:56;;;;;;;7.37;6.77;;;;;15.10;101522.00;;;;2085312;28;20692;-63
2021/03/07 04:50:56;;;;;;;7.20;6.60;;;;;15.10;101527.00;;;;2076553;28;20778;-63
2021/03/07 04:51:56;;;;;;;7.00;6.50;;;;;15.10;101518.00;;;;2076591;28;20217;-63
2021/03/07 04:52:57;;;;;;;7.10;6.50;;;;;15.10;101512.00;;;;2084267;28;20210;-63
2021/03/07 04:53:57;;;;;;;7.17;6.47;;;;;15.10;101521.00;;;;2084095;28;20198;-63
2021/03/07 04:54:57;;;;;;;6.37;5.80;;;;;15.10;101516.00;;;;2085097;28;20218;-62
2021/03/07 04:55:58;;;;;;;6.90;6.30;;;;;15.10;101517.00;;;;2085392;28;20268;-62
2021/03/07 04:57:02;;;;;;;6.53;5.93;;;;;15.10;101522.00;;;;2085399;28;20227;-63
2021/03/07 04:58:02;;;;;;;6.45;5.88;;;;;15.10;101510.00;;;;2085364;28;20214;-63
2021/03/07 04:59:02;;;;;;;7.43;6.73;;;;;15.10;101515.00;;;;2091316;28;20698;-63
2021/03/07 05:00:07;;;;;;;6.80;6.30;;;;;15.10;101517.00;;;;2091437;28;20221;-62
2021/03/07 05:01:08;;;;;;;6.45;5.88;;;;;15.10;101511.00;;;;2076520;28;20226;-63
2021/03/07 05:02:09;;;;;;;6.78;6.18;;;;;15.10;101515.00;;;;2076366;28;20221;-63
2021/03/07 05:03:09;;;;;;;6.47;5.87;;;;;15.10;101511.00;;;;2076365;28;20232;-63